createdAt,value
2018-04-10T00:02:11.143Z,7.80
2018-04-10T00:04:38.638Z,7.80
2018-04-10T00:07:06.215Z,7.80
2018-04-10T00:09:33.694Z,7.80
2018-04-10T00:12:01.195Z,7.90
2018-04-10T00:14:28.715Z,7.90
2018-04-10T00:16:56.206Z,7.80
2018-04-10T00:19:23.696Z,7.80
2018-04-10T00:21:51.222Z,7.80
2018-04-10T00:24:18.714Z,7.80
2018-04-10T00:26:46.206Z,7.80
2018-04-10T00:29:14.535Z,7.70
2018-04-10T00:31:42.026Z,7.70
2018-04-10T00:34:09.518Z,7.60
2018-04-10T00:36:37.065Z,7.60
2018-04-10T00:39:04.565Z,7.60
2018-04-10T00:41:32.050Z,7.60
2018-04-10T00:43:59.567Z,7.50
2018-04-10T00:46:27.060Z,7.50
2018-04-10T00:48:54.549Z,7.50
2018-04-10T00:51:22.874Z,7.50
2018-04-10T00:53:50.366Z,7.50
2018-04-10T00:56:17.855Z,7.50
2018-04-10T00:58:46.162Z,7.40
2018-04-10T01:01:13.658Z,7.40
2018-04-10T01:03:41.152Z,7.40
2018-04-10T01:06:09.442Z,7.40
2018-04-10T01:08:36.934Z,7.40
2018-04-10T01:11:04.427Z,7.40
2018-04-10T01:13:32.001Z,7.50
2018-04-10T01:15:59.492Z,7.50
2018-04-10T01:18:26.982Z,7.50
2018-04-10T01:20:54.518Z,7.60
2018-04-10T01:23:22.010Z,7.60
2018-04-10T01:25:49.502Z,7.70
2018-04-10T01:28:17.034Z,7.70
2018-04-10T01:30:44.562Z,7.80
2018-04-10T01:33:12.061Z,7.90
2018-04-10T01:35:39.694Z,7.90
2018-04-10T01:38:07.185Z,7.90
2018-04-10T01:40:34.678Z,8.00
2018-04-10T01:43:02.213Z,8.10
2018-04-10T01:52:12.836Z,8.20
2018-04-10T01:54:40.329Z,8.30
2018-04-10T01:57:07.826Z,8.30
2018-04-10T01:59:35.389Z,8.40
2018-04-10T02:02:02.890Z,8.40
2018-04-10T02:04:31.154Z,8.50
2018-04-10T02:06:58.693Z,8.40
2018-04-10T02:09:43.837Z,8.50
2018-04-10T02:12:11.370Z,8.60
2018-04-10T02:14:38.861Z,8.70
2018-04-10T02:17:06.358Z,8.80
2018-04-10T02:19:33.898Z,8.80
2018-04-10T02:22:01.394Z,8.90
2018-04-10T02:24:28.894Z,8.90
2018-04-10T02:26:56.484Z,9.00
2018-04-10T02:29:23.983Z,9.00
2018-04-10T02:31:51.483Z,9.10
2018-04-10T02:34:19.778Z,9.10
2018-04-10T02:36:47.274Z,9.10
2018-04-10T02:39:14.774Z,9.20
2018-04-10T02:41:42.317Z,9.20
2018-04-10T02:44:10.583Z,9.30
2018-04-10T02:46:38.862Z,9.30
2018-04-10T02:49:06.421Z,9.30
2018-04-10T02:51:33.919Z,9.40
2018-04-10T02:54:01.409Z,9.40
2018-04-10T02:56:28.938Z,9.40
2018-04-10T02:58:56.433Z,9.40
2018-04-10T03:01:23.926Z,9.50
2018-04-10T03:03:51.453Z,9.50
2018-04-10T03:06:18.946Z,9.50
2018-04-10T03:08:46.439Z,9.50
2018-04-10T03:11:14.010Z,9.50
2018-04-10T03:13:41.497Z,9.50
2018-04-10T03:16:08.990Z,9.40
2018-04-10T03:18:36.558Z,9.40
2018-04-10T03:21:04.050Z,9.40
2018-04-10T03:23:31.542Z,9.40
2018-04-10T03:25:59.079Z,9.40
2018-04-10T03:28:26.572Z,9.50
2018-04-10T03:30:54.062Z,9.40
2018-04-10T03:33:21.602Z,9.40
2018-04-10T03:35:49.090Z,9.40
2018-04-10T03:38:16.599Z,9.50
2018-04-10T03:40:44.161Z,9.50
2018-04-10T03:43:11.654Z,9.50
2018-04-10T03:45:39.145Z,9.50
2018-04-10T03:48:06.682Z,9.50
2018-04-10T03:50:34.178Z,9.50
2018-04-10T03:53:01.674Z,9.40
2018-04-10T03:55:29.202Z,9.30
2018-04-10T03:57:56.702Z,9.30
2018-04-10T04:00:24.200Z,9.20
2018-04-10T04:02:51.742Z,9.10
2018-04-10T04:05:19.236Z,9.00
2018-04-10T04:07:46.730Z,8.90
2018-04-10T04:10:14.258Z,8.70
2018-04-10T04:12:41.745Z,8.60
2018-04-10T04:15:09.238Z,8.50
2018-04-10T04:17:36.762Z,8.40
2018-04-10T04:20:15.894Z,8.30
2018-04-10T04:22:43.430Z,8.20
2018-04-10T04:25:10.917Z,8.10
2018-04-10T04:27:38.413Z,8.10
2018-04-10T04:30:06.701Z,8.00
2018-04-10T04:32:34.198Z,8.00
2018-04-10T04:35:01.701Z,7.90
2018-04-10T04:37:30.030Z,7.90
2018-04-10T04:39:57.523Z,7.90
2018-04-10T04:42:25.026Z,7.90
2018-04-10T04:44:52.571Z,7.90
2018-04-10T04:47:20.063Z,7.90
2018-04-10T04:49:47.892Z,7.90
2018-04-10T04:52:15.442Z,7.80
2018-04-10T04:54:42.938Z,7.80
2018-04-10T04:57:10.429Z,7.80
2018-04-10T04:59:38.029Z,7.80
2018-04-10T05:02:05.514Z,7.80
2018-04-10T05:04:33.018Z,7.80
2018-04-10T05:07:00.530Z,7.80
2018-04-10T05:09:28.791Z,7.80
2018-04-10T05:11:56.290Z,7.80
2018-04-10T05:14:23.854Z,7.80
2018-04-10T05:16:51.354Z,7.80
2018-04-10T05:19:18.854Z,7.80
2018-04-10T05:21:46.397Z,7.80
2018-04-10T05:24:13.902Z,7.80
2018-04-10T05:26:41.394Z,7.80
2018-04-10T05:29:08.950Z,7.80
2018-04-10T05:31:36.442Z,7.90
2018-04-10T05:34:03.938Z,7.80
2018-04-10T05:36:31.462Z,7.80
2018-04-10T05:38:58.962Z,7.80
2018-04-10T05:41:26.456Z,7.90
2018-04-10T05:43:53.998Z,7.80
2018-04-10T05:46:21.494Z,7.90
2018-04-10T05:48:49.229Z,7.90
2018-04-10T05:51:16.930Z,7.90
2018-04-10T05:53:45.210Z,8.00
2018-04-10T05:56:12.706Z,7.90
2018-04-10T05:58:40.233Z,8.00
2018-04-10T06:01:08.499Z,8.00
2018-04-10T06:03:35.994Z,7.90
2018-04-10T06:06:03.534Z,8.00
2018-04-10T06:08:31.800Z,7.90
2018-04-10T06:10:59.302Z,7.90
2018-04-10T06:13:26.868Z,7.90
2018-04-10T06:15:54.358Z,7.90
2018-04-10T06:18:22.118Z,7.90
2018-04-10T06:20:49.763Z,7.90
2018-04-10T06:23:17.265Z,7.90
2018-04-10T06:25:44.765Z,8.00
2018-04-10T06:28:12.294Z,8.00
2018-04-10T06:30:40.550Z,8.10
2018-04-10T06:33:08.054Z,8.10
2018-04-10T06:35:35.632Z,8.10
2018-04-10T06:38:03.126Z,8.20
2018-04-10T06:40:30.622Z,8.20
2018-04-10T06:42:58.161Z,8.30
2018-04-10T06:45:25.655Z,8.40
2018-04-10T06:47:53.146Z,8.50
2018-04-10T06:50:20.679Z,8.50
2018-04-10T06:52:48.173Z,8.50
2018-04-10T06:55:15.670Z,8.60
2018-04-10T06:57:43.243Z,8.60
2018-04-10T07:00:11.561Z,8.70
2018-04-10T07:02:39.061Z,8.70
2018-04-10T07:05:06.602Z,8.70
2018-04-10T07:07:34.094Z,8.70
2018-04-10T07:10:01.588Z,8.80
2018-04-10T07:12:29.121Z,8.80
2018-04-10T07:14:56.612Z,8.80
2018-04-10T07:17:24.110Z,8.80
2018-04-10T07:19:51.632Z,8.80
2018-04-10T07:22:19.126Z,8.90
2018-04-10T07:24:46.614Z,8.90
2018-04-10T07:27:14.949Z,9.00
2018-04-10T07:29:42.446Z,9.00
2018-04-10T07:32:09.952Z,9.10
2018-04-10T07:34:37.500Z,9.10
2018-04-10T07:37:04.995Z,9.10
2018-04-10T07:39:32.491Z,9.10
2018-04-10T07:42:00.016Z,9.10
2018-04-10T07:44:27.522Z,9.20
2018-04-10T07:46:55.017Z,9.20
2018-04-10T07:49:22.586Z,9.20
2018-04-10T07:51:50.078Z,9.20
2018-04-10T07:54:17.583Z,9.30
2018-04-10T07:56:45.138Z,9.30
2018-04-10T07:59:12.630Z,9.30
2018-04-10T08:01:40.125Z,9.40
2018-04-10T08:04:07.654Z,9.40
2018-04-10T08:06:35.154Z,9.50
2018-04-10T08:09:02.652Z,9.40
2018-04-10T08:11:30.170Z,9.40
2018-04-10T08:13:57.657Z,9.40
2018-04-10T08:16:25.165Z,9.40
2018-04-10T08:18:52.747Z,9.40
2018-04-10T08:21:20.235Z,9.40
2018-04-10T08:23:48.493Z,9.40
2018-04-10T08:26:16.030Z,9.40
2018-04-10T08:28:43.534Z,9.40
2018-04-10T08:31:11.794Z,9.60
2018-04-10T08:33:39.470Z,9.50
2018-04-10T08:36:06.970Z,9.70
2018-04-10T08:38:34.462Z,9.70
2018-04-10T08:41:02.978Z,9.80
2018-04-10T08:43:31.242Z,10.00
2018-04-10T08:45:58.742Z,10.00
2018-04-10T08:48:26.282Z,10.10
2018-04-10T08:50:54.542Z,10.30
2018-04-10T08:53:22.041Z,10.30
2018-04-10T08:55:49.559Z,10.40
2018-04-10T08:58:17.066Z,10.50
2018-04-10T09:00:44.577Z,10.60
2018-04-10T09:03:12.272Z,10.70
2018-04-10T09:05:39.767Z,10.80
2018-04-10T09:08:07.259Z,10.80
2018-04-10T09:10:34.950Z,10.90
2018-04-10T09:13:02.654Z,10.90
2018-04-10T09:15:30.286Z,10.90
2018-04-10T09:17:57.814Z,11.00
2018-04-10T09:20:31.674Z,11.20
2018-04-10T09:22:59.195Z,11.20
2018-04-10T09:25:26.755Z,11.20
2018-04-10T09:27:55.953Z,11.30
2018-04-10T09:30:23.502Z,11.30
2018-04-10T09:32:51.011Z,11.40
2018-04-10T09:35:18.506Z,11.40
2018-04-10T09:37:46.066Z,11.40
2018-04-10T09:40:13.564Z,11.40
2018-04-10T09:42:41.070Z,11.40
2018-04-10T09:45:08.596Z,11.40
2018-04-10T09:47:36.096Z,11.50
2018-04-10T09:50:03.594Z,11.40
2018-04-10T09:52:31.134Z,11.50
2018-04-10T09:54:58.666Z,11.50
2018-04-10T09:57:26.169Z,11.40
2018-04-10T09:59:53.692Z,11.50
2018-04-10T10:02:21.206Z,11.50
2018-04-10T10:04:48.696Z,11.60
2018-04-10T10:07:16.255Z,11.60
2018-04-10T10:09:43.758Z,11.50
2018-04-10T10:12:11.260Z,11.60
2018-04-10T10:14:39.552Z,11.60
2018-04-10T10:17:07.050Z,11.60
2018-04-10T10:19:34.533Z,11.50
2018-04-10T10:22:02.070Z,11.60
2018-04-10T10:24:29.565Z,11.60
2018-04-10T10:26:57.060Z,11.60
2018-04-10T10:29:24.578Z,11.50
2018-04-10T10:31:52.072Z,11.40
2018-04-10T10:34:19.575Z,11.40
2018-04-10T10:36:47.092Z,11.30
2018-04-10T10:39:14.602Z,11.30
2018-04-10T10:41:42.096Z,11.40
2018-04-10T10:44:09.637Z,11.50
2018-04-10T10:46:37.136Z,11.70
2018-04-10T10:49:04.635Z,11.70
2018-04-10T10:51:32.202Z,11.90
2018-04-10T10:53:59.691Z,12.10
2018-04-10T10:56:27.183Z,12.20
2018-04-10T10:58:54.706Z,12.30
2018-04-10T11:01:22.201Z,12.40
2018-04-10T11:03:49.694Z,12.40
2018-04-10T11:06:17.234Z,12.50
2018-04-10T11:08:44.723Z,12.70
2018-04-10T11:11:12.209Z,12.90
2018-04-10T11:13:39.722Z,13.00
2018-04-10T11:16:07.223Z,13.10
2018-04-10T11:18:34.722Z,13.10
2018-04-10T11:21:02.244Z,13.10
2018-04-10T11:23:30.530Z,13.20
2018-04-10T11:25:58.023Z,13.20
2018-04-10T11:28:25.583Z,13.20
2018-04-10T11:30:53.090Z,13.10
2018-04-10T11:33:20.591Z,13.00
2018-04-10T11:35:48.137Z,12.90
2018-04-10T11:38:15.626Z,12.80
2018-04-10T11:40:43.118Z,12.70
2018-04-10T11:43:10.655Z,12.70
2018-04-10T11:45:38.150Z,12.80
2018-04-10T11:48:05.640Z,12.80
2018-04-10T11:50:33.199Z,12.80
2018-04-10T11:53:00.694Z,12.80
2018-04-10T11:55:28.186Z,12.80
2018-04-10T11:57:55.709Z,12.90
2018-04-10T12:00:23.202Z,12.90
2018-04-10T12:02:50.695Z,12.90
2018-04-10T12:05:18.218Z,13.00
2018-04-10T12:07:45.709Z,13.20
2018-04-10T12:10:13.209Z,13.40
2018-04-10T12:12:41.150Z,13.50
2018-04-10T12:15:08.638Z,13.70
2018-04-10T12:17:36.135Z,13.80
2018-04-10T12:20:07.013Z,13.90
2018-04-10T12:22:34.502Z,14.00
2018-04-10T12:25:01.994Z,14.10
2018-04-10T12:27:29.533Z,14.20
2018-04-10T12:29:57.049Z,14.40
2018-04-10T12:32:24.543Z,14.60
2018-04-10T12:34:52.061Z,14.70
2018-04-10T12:37:19.572Z,14.90
2018-04-10T12:39:47.058Z,15.00
2018-04-10T12:42:14.578Z,15.00
2018-04-10T12:44:42.070Z,14.90
2018-04-10T12:47:09.559Z,14.80
2018-04-10T12:49:37.127Z,14.60
2018-04-10T12:52:04.618Z,14.50
2018-04-10T12:54:32.106Z,14.40
2018-04-10T12:56:59.639Z,14.40
2018-04-10T12:59:27.133Z,14.30
2018-04-10T13:01:54.622Z,14.30
2018-04-10T13:04:22.139Z,14.20
2018-04-10T13:06:49.731Z,14.20
2018-04-10T13:09:17.222Z,14.10
2018-04-10T13:11:45.502Z,14.00
2018-04-10T13:14:13.063Z,14.00
2018-04-10T13:16:40.579Z,14.00
2018-04-10T13:19:08.187Z,13.90
2018-04-10T13:21:35.686Z,13.90
2018-04-10T13:24:03.177Z,13.80
2018-04-10T13:26:30.690Z,13.80
2018-04-10T13:28:58.177Z,13.80
2018-04-10T13:31:25.667Z,13.80
2018-04-10T13:33:53.186Z,13.80
2018-04-10T13:36:20.672Z,13.80
2018-04-10T13:38:48.168Z,13.90
2018-04-10T13:41:15.737Z,14.00
2018-04-10T13:43:43.263Z,14.00
2018-04-10T13:46:10.743Z,14.10
2018-04-10T13:48:38.282Z,14.20
2018-04-10T13:51:05.778Z,14.20
2018-04-10T13:53:33.274Z,14.20
2018-04-10T13:56:00.787Z,14.30
2018-04-10T13:58:29.042Z,14.20
2018-04-10T14:00:56.526Z,14.20
2018-04-10T14:03:24.042Z,14.10
2018-04-10T14:05:51.537Z,13.90
2018-04-10T14:08:19.799Z,13.80
2018-04-10T14:10:47.339Z,13.80
2018-04-10T14:13:14.838Z,13.80
2018-04-10T14:15:43.118Z,13.50
2018-04-10T14:18:10.683Z,13.50
2018-04-10T14:20:38.933Z,13.30
2018-04-10T14:23:06.490Z,13.30
2018-04-10T14:25:34.029Z,13.30
2018-04-10T14:28:01.522Z,13.20
2018-04-10T14:30:29.019Z,13.10
2018-04-10T14:32:56.555Z,13.10
2018-04-10T14:35:24.059Z,13.00
2018-04-10T14:37:53.593Z,13.10
2018-04-10T14:40:21.226Z,13.10
2018-04-10T14:42:48.722Z,13.00
2018-04-10T14:45:16.226Z,13.00
2018-04-10T14:47:43.754Z,12.90
2018-04-10T14:50:11.242Z,12.80
2018-04-10T14:52:38.760Z,12.70
2018-04-10T14:55:06.314Z,12.60
2018-04-10T14:57:33.810Z,12.60
2018-04-10T15:00:01.314Z,12.50
2018-04-10T15:02:28.831Z,12.60
2018-04-10T15:04:56.334Z,12.50
2018-04-10T15:07:23.854Z,12.50
2018-04-10T15:09:52.186Z,12.50
2018-04-10T15:12:19.696Z,12.50
2018-04-10T15:14:47.950Z,12.70
2018-04-10T15:17:15.514Z,12.70
2018-04-10T15:19:43.162Z,12.70
2018-04-10T15:22:10.653Z,12.70
2018-04-10T15:24:38.190Z,12.80
2018-04-10T15:27:05.678Z,12.80
2018-04-10T15:29:33.943Z,12.80
2018-04-10T15:32:01.478Z,12.80
2018-04-10T15:34:28.994Z,12.90
2018-04-10T15:36:56.491Z,12.90
2018-04-10T15:39:24.010Z,12.80
2018-04-10T15:41:51.502Z,12.70
2018-04-10T15:44:19.014Z,12.70
2018-04-10T15:46:47.343Z,12.60
2018-04-10T15:49:14.934Z,12.50
2018-04-10T15:51:42.482Z,12.40
2018-04-10T15:54:10.079Z,12.30
2018-04-10T15:56:37.563Z,12.30
2018-04-10T15:59:05.080Z,12.20
2018-04-10T16:01:32.602Z,12.00
2018-04-10T16:04:00.890Z,11.90
2018-04-10T16:06:28.399Z,11.70
2018-04-10T16:08:56.718Z,11.50
2018-04-10T16:11:24.250Z,11.50
2018-04-10T16:13:52.598Z,11.20
2018-04-10T16:16:20.250Z,11.20
2018-04-10T16:18:47.743Z,11.10
2018-04-10T16:21:15.242Z,11.00
2018-04-10T16:23:43.522Z,10.80
2018-04-10T16:26:11.013Z,10.80
2018-04-10T16:28:38.510Z,10.80
2018-04-10T16:31:06.069Z,10.70
2018-04-10T16:33:33.574Z,10.60
2018-04-10T16:36:01.071Z,10.50
2018-04-10T16:38:29.497Z,10.50
2018-04-10T16:40:57.026Z,10.40
2018-04-10T16:43:24.531Z,10.30
2018-04-10T16:45:52.075Z,10.20
2018-04-10T16:48:19.575Z,10.10
2018-04-10T16:50:47.080Z,10.00
2018-04-10T16:53:14.682Z,10.00
2018-04-10T16:55:42.153Z,9.90
2018-04-10T16:58:09.644Z,9.80
2018-04-10T17:00:37.970Z,9.70
2018-04-10T17:03:05.539Z,9.70
2018-04-10T17:05:33.023Z,9.70
2018-04-10T17:08:00.758Z,9.60
2018-04-10T17:10:28.263Z,9.50
2018-04-10T17:12:55.786Z,9.50
2018-04-10T17:15:23.367Z,9.40
2018-04-10T17:17:50.871Z,9.30
2018-04-10T17:20:18.369Z,9.30
2018-04-10T17:22:45.934Z,9.20
2018-04-10T17:25:13.434Z,9.10
2018-04-10T17:27:40.927Z,9.10
2018-04-10T17:30:09.339Z,8.90
2018-04-10T17:32:37.796Z,8.80
2018-04-10T17:35:05.290Z,8.80
2018-04-10T17:37:32.827Z,8.80
2018-04-10T17:40:00.318Z,8.80
2018-04-10T17:42:27.810Z,8.60
2018-04-10T17:44:55.339Z,8.50
2018-04-10T17:47:22.887Z,8.50
2018-04-10T17:49:50.392Z,8.40
2018-04-10T17:52:18.074Z,8.30
2018-04-10T17:54:45.575Z,8.20
2018-04-10T17:57:13.062Z,8.10
2018-04-10T17:59:41.366Z,8.00
2018-04-10T18:02:08.854Z,8.00
2018-04-10T18:04:36.347Z,7.90
2018-04-10T18:07:03.907Z,7.90
2018-04-10T18:09:31.405Z,7.80
2018-04-10T18:11:58.939Z,7.70
2018-04-10T18:14:27.299Z,7.60
2018-04-10T18:16:54.857Z,7.60
2018-04-10T18:19:22.641Z,7.60
2018-04-10T18:21:50.186Z,7.50
2018-04-10T18:24:17.674Z,7.50
2018-04-10T18:26:45.173Z,7.40
2018-04-10T18:29:12.690Z,7.40
2018-04-10T18:31:40.951Z,7.30
2018-04-10T18:34:08.590Z,7.30
2018-04-10T18:36:36.156Z,7.30
2018-04-10T18:39:03.720Z,7.30
2018-04-10T18:41:31.394Z,7.30
2018-04-10T18:43:58.959Z,7.30
2018-04-10T18:46:26.480Z,7.20
2018-04-10T18:48:53.974Z,7.20
2018-04-10T18:51:21.503Z,7.10
2018-04-10T18:53:49.003Z,7.10
2018-04-10T18:56:16.502Z,7.00
2018-04-10T18:58:44.079Z,7.00
2018-04-10T19:01:11.613Z,7.00
2018-04-10T19:03:39.108Z,6.90
2018-04-10T19:06:06.750Z,6.90
2018-04-10T19:08:34.311Z,6.90
2018-04-10T19:11:01.898Z,6.90
2018-04-10T19:13:29.510Z,6.80
2018-04-10T19:15:57.156Z,6.80
2018-04-10T19:18:24.991Z,6.70
2018-04-10T19:20:52.868Z,6.70
2018-04-10T19:23:20.379Z,6.60
2018-04-10T19:25:47.900Z,6.60
2018-04-10T19:28:15.605Z,6.50
2018-04-10T19:30:43.162Z,6.50
2018-04-10T19:33:11.423Z,6.40
2018-04-10T19:35:38.935Z,6.40
2018-04-10T19:38:06.434Z,6.40
2018-04-10T19:40:33.975Z,6.40
2018-04-10T19:43:02.591Z,6.30
2018-04-10T19:45:30.116Z,6.30
2018-04-10T19:47:57.692Z,6.30
2018-04-10T19:50:25.313Z,6.20
2018-04-10T19:52:52.825Z,6.20
2018-04-10T19:55:20.322Z,6.20
2018-04-10T19:57:47.877Z,6.10
2018-04-10T20:00:15.400Z,6.10
2018-04-10T20:02:42.898Z,6.00
2018-04-10T20:05:11.103Z,5.90
2018-04-10T20:07:38.598Z,5.90
2018-04-10T20:10:06.082Z,5.90
2018-04-10T20:12:33.654Z,5.80
2018-04-10T20:15:01.146Z,5.70
2018-04-10T20:17:28.641Z,5.70
2018-04-10T20:19:56.174Z,5.70
2018-04-10T20:22:23.662Z,5.60
2018-04-10T20:24:51.146Z,5.60
2018-04-10T20:27:18.702Z,5.50
2018-04-10T20:29:46.200Z,5.50
2018-04-10T20:32:13.695Z,5.50
2018-04-10T20:34:41.986Z,5.50
2018-04-10T20:37:09.481Z,5.40
2018-04-10T20:39:36.987Z,5.50
2018-04-10T20:42:05.262Z,5.50
2018-04-10T20:44:33.526Z,5.40
2018-04-10T20:47:01.015Z,5.40
2018-04-10T20:49:28.555Z,5.40
2018-04-10T20:51:56.066Z,5.40
2018-04-10T20:54:23.554Z,5.30
2018-04-10T20:56:51.114Z,5.30
2018-04-10T20:59:18.602Z,5.20
2018-04-10T21:01:46.871Z,5.10
2018-04-10T21:04:14.422Z,5.10
2018-04-10T21:06:41.940Z,5.10
2018-04-10T21:09:09.426Z,5.10
2018-04-10T21:11:36.959Z,5.00
2018-04-10T21:14:04.446Z,5.00
2018-04-10T21:16:31.938Z,5.00
2018-04-10T21:18:59.500Z,5.00
2018-04-10T21:21:27.226Z,4.90
2018-04-10T21:23:54.722Z,4.90
2018-04-10T21:26:22.253Z,4.80
2018-04-10T21:28:49.775Z,4.80
2018-04-10T21:31:17.266Z,4.80
2018-04-10T21:33:44.798Z,4.80
2018-04-10T21:36:12.287Z,4.80
2018-04-10T21:38:39.774Z,4.70
2018-04-10T21:41:07.301Z,4.70
2018-04-10T21:43:34.792Z,4.60
2018-04-10T21:46:02.290Z,4.70
2018-04-10T21:48:29.810Z,4.70
2018-04-10T21:50:57.302Z,4.70
2018-04-10T21:53:25.562Z,4.60
2018-04-10T21:55:53.162Z,4.60
2018-04-10T21:58:20.650Z,4.60
2018-04-10T22:00:48.142Z,4.60
2018-04-10T22:03:15.678Z,4.60
2018-04-10T22:05:43.174Z,4.50
2018-04-10T22:08:11.426Z,4.50
2018-04-10T22:10:38.950Z,4.50
2018-04-10T22:13:06.478Z,4.50
2018-04-10T22:15:33.978Z,4.50
2018-04-10T22:18:02.283Z,4.40
2018-04-10T22:20:29.776Z,4.40
2018-04-10T22:22:57.269Z,4.40
2018-04-10T22:25:24.785Z,4.40
2018-04-10T22:27:52.287Z,4.40
2018-04-10T22:30:19.827Z,4.40
2018-04-10T22:32:48.315Z,4.30
2018-04-10T22:35:15.814Z,4.30
2018-04-10T22:37:43.302Z,4.30
2018-04-10T22:40:10.835Z,4.30
2018-04-10T22:42:38.331Z,4.30
2018-04-10T22:45:05.833Z,4.40
2018-04-10T22:47:33.364Z,4.30
2018-04-10T22:50:00.859Z,4.40
2018-04-10T22:52:28.354Z,4.30
2018-04-10T22:54:56.679Z,4.30
2018-04-10T22:57:24.170Z,4.30
2018-04-10T22:59:51.662Z,4.30
2018-04-10T23:02:19.994Z,4.30
2018-04-10T23:04:47.495Z,4.30
2018-04-10T23:07:15.767Z,4.30
2018-04-10T23:09:43.297Z,4.20
2018-04-10T23:12:10.952Z,4.20
2018-04-10T23:14:38.439Z,4.20
2018-04-10T23:17:05.969Z,4.30
2018-04-10T23:19:33.466Z,4.30
2018-04-10T23:22:00.959Z,4.20
2018-04-10T23:24:29.287Z,4.10
2018-04-10T23:26:56.782Z,4.10
2018-04-10T23:29:24.275Z,4.10
2018-04-10T23:31:52.585Z,4.10
2018-04-10T23:34:20.083Z,4.10
2018-04-10T23:36:47.574Z,4.10
2018-04-10T23:39:15.888Z,4.10
2018-04-10T23:41:43.383Z,4.10
2018-04-10T23:44:10.887Z,4.10
2018-04-10T23:46:38.521Z,4.10
2018-04-10T23:49:06.024Z,4.10
2018-04-10T23:51:33.517Z,4.10
2018-04-10T23:54:01.106Z,4.00
2018-04-10T23:56:28.603Z,4.00
2018-04-10T23:58:56.096Z,4.00
